createdAt,value
2018-10-16T00:01:20.916Z,43.40
2018-10-16T00:03:47.730Z,42.70
2018-10-16T00:06:14.526Z,42.80
2018-10-16T00:08:41.313Z,42.80
2018-10-16T00:11:08.114Z,42.70
2018-10-16T00:13:34.897Z,42.70
2018-10-16T00:16:01.687Z,42.70
2018-10-16T00:18:28.480Z,42.70
2018-10-16T00:20:55.302Z,42.70
2018-10-16T00:23:22.116Z,42.70
2018-10-16T00:25:48.912Z,42.70
2018-10-16T00:28:15.706Z,42.70
2018-10-16T00:30:42.690Z,42.70
2018-10-16T00:33:09.510Z,42.70
2018-10-16T00:35:36.349Z,42.60
2018-10-16T00:38:03.138Z,42.70
2018-10-16T00:40:30.039Z,42.60
2018-10-16T00:42:56.848Z,42.60
2018-10-16T00:45:23.655Z,42.60
2018-10-16T00:47:50.435Z,42.70
2018-10-16T00:50:17.426Z,42.60
2018-10-16T00:52:44.271Z,42.60
2018-10-16T00:55:11.039Z,42.60
2018-10-16T00:57:37.852Z,42.60
2018-10-16T01:00:04.791Z,42.60
2018-10-16T01:02:31.595Z,42.60
2018-10-16T01:04:58.396Z,42.50
2018-10-16T01:07:25.205Z,42.60
2018-10-16T01:09:52.171Z,42.60
2018-10-16T01:12:18.976Z,42.50
2018-10-16T01:14:45.779Z,42.50
2018-10-16T01:17:12.754Z,42.50
2018-10-16T01:19:39.524Z,42.60
2018-10-16T01:22:06.318Z,42.50
2018-10-16T01:24:33.116Z,42.50
2018-10-16T01:26:59.917Z,42.50
2018-10-16T01:29:26.904Z,42.50
2018-10-16T01:31:53.742Z,42.50
2018-10-16T01:34:20.573Z,42.50
2018-10-16T01:36:47.415Z,42.50
2018-10-16T01:39:14.310Z,42.50
2018-10-16T01:41:41.125Z,42.50
2018-10-16T01:44:07.943Z,42.50
2018-10-16T01:46:34.767Z,42.40
2018-10-16T01:49:01.675Z,42.50
2018-10-16T01:51:28.501Z,42.40
2018-10-16T01:53:55.333Z,42.40
2018-10-16T01:56:22.204Z,42.40
2018-10-16T01:58:49.041Z,42.40
2018-10-16T02:01:15.883Z,42.40
2018-10-16T02:03:42.712Z,42.50
2018-10-16T02:06:09.536Z,42.50
2018-10-16T02:08:36.458Z,42.40
2018-10-16T02:11:03.266Z,42.40
2018-10-16T02:13:30.097Z,42.40
2018-10-16T02:15:56.923Z,42.30
2018-10-16T02:18:23.770Z,42.30
2018-10-16T02:20:50.595Z,42.20
2018-10-16T02:23:17.423Z,42.20
2018-10-16T02:25:44.249Z,42.30
2018-10-16T02:28:11.087Z,42.20
2018-10-16T02:30:38.001Z,42.20
2018-10-16T02:33:04.841Z,42.10
2018-10-16T02:35:31.674Z,42.10
2018-10-16T02:37:58.514Z,42.10
2018-10-16T02:40:25.370Z,42.20
2018-10-16T02:42:52.200Z,42.20
2018-10-16T02:45:19.027Z,42.20
2018-10-16T02:47:45.859Z,42.20
2018-10-16T02:50:12.751Z,42.20
2018-10-16T02:52:39.564Z,42.10
2018-10-16T02:55:06.404Z,42.10
2018-10-16T02:57:33.239Z,42.20
2018-10-16T03:00:00.125Z,42.10
2018-10-16T03:02:26.943Z,42.20
2018-10-16T03:04:53.775Z,42.20
2018-10-16T03:07:20.587Z,42.20
2018-10-16T03:09:47.496Z,42.10
2018-10-16T03:12:14.314Z,42.10
2018-10-16T03:14:41.154Z,42.10
2018-10-16T03:17:08.156Z,42.10
2018-10-16T03:19:35.073Z,42.00
2018-10-16T03:22:01.899Z,42.00
2018-10-16T03:24:28.793Z,42.10
2018-10-16T03:26:55.614Z,42.00
2018-10-16T03:29:22.854Z,42.10
2018-10-16T03:31:49.674Z,42.10
2018-10-16T03:34:16.506Z,42.10
2018-10-16T03:36:43.330Z,42.00
2018-10-16T03:39:10.223Z,42.00
2018-10-16T03:41:37.045Z,42.00
2018-10-16T03:44:03.895Z,42.00
2018-10-16T03:46:30.721Z,42.00
2018-10-16T03:48:57.609Z,42.00
2018-10-16T03:51:24.456Z,42.00
2018-10-16T03:53:51.267Z,42.00
2018-10-16T03:56:18.098Z,42.00
2018-10-16T03:58:44.966Z,41.90
2018-10-16T04:01:11.798Z,42.00
2018-10-16T04:03:38.648Z,41.90
2018-10-16T04:06:05.490Z,41.90
2018-10-16T04:08:32.318Z,41.90
2018-10-16T04:10:59.147Z,41.90
2018-10-16T04:13:25.963Z,41.90
2018-10-16T04:15:52.796Z,41.90
2018-10-16T04:18:19.619Z,41.90
2018-10-16T04:20:46.539Z,41.80
2018-10-16T04:23:13.384Z,41.90
2018-10-16T04:25:40.215Z,41.90
2018-10-16T04:28:07.087Z,41.90
2018-10-16T04:30:33.924Z,41.90
2018-10-16T04:35:57.864Z,41.90
2018-10-16T04:43:55.646Z,42.10
2018-10-16T04:49:09.214Z,42.00
2018-10-16T04:54:08.912Z,42.30
2018-10-16T04:56:35.754Z,42.20
2018-10-16T04:59:02.588Z,42.20
2018-10-16T05:01:29.681Z,42.10
2018-10-16T05:03:56.521Z,42.20
2018-10-16T05:06:23.537Z,42.30
2018-10-16T05:08:50.372Z,39.90
2018-10-16T05:11:17.204Z,37.00
2018-10-16T05:13:44.063Z,36.30
2018-10-16T05:16:10.948Z,37.20
2018-10-16T05:18:37.966Z,38.00
2018-10-16T05:21:04.835Z,38.40
2018-10-16T05:23:31.671Z,38.90
2018-10-16T05:25:58.524Z,39.20
2018-10-16T05:28:25.534Z,39.20
2018-10-16T05:30:52.609Z,39.40
2018-10-16T05:33:19.462Z,39.50
2018-10-16T05:35:56.060Z,39.70
2018-10-16T05:38:29.198Z,39.80
2018-10-16T05:41:02.749Z,39.90
2018-10-16T05:43:39.825Z,40.60
2018-10-16T05:46:14.250Z,40.10
2018-10-16T05:48:51.260Z,40.10
2018-10-16T05:51:27.273Z,40.00
2018-10-16T05:53:54.135Z,39.90
2018-10-16T05:56:20.953Z,40.10
2018-10-16T05:58:47.878Z,40.00
2018-10-16T06:01:14.715Z,40.00
2018-10-16T06:03:41.552Z,40.10
2018-10-16T06:06:08.423Z,40.20
2018-10-16T06:08:35.470Z,40.30
2018-10-16T06:11:02.352Z,40.40
2018-10-16T06:13:29.204Z,40.40
2018-10-16T06:15:56.072Z,40.30
2018-10-16T06:18:23.035Z,40.40
2018-10-16T06:20:50.081Z,40.40
2018-10-16T06:23:16.916Z,40.40
2018-10-16T06:25:43.784Z,40.50
2018-10-16T06:28:10.810Z,40.50
2018-10-16T06:30:37.658Z,40.50
2018-10-16T06:33:04.548Z,40.40
2018-10-16T06:35:31.344Z,40.50
2018-10-16T06:37:58.399Z,40.40
2018-10-16T06:40:25.294Z,40.30
2018-10-16T06:42:52.106Z,40.30
2018-10-16T06:45:18.965Z,40.30
2018-10-16T06:47:46.058Z,40.20
2018-10-16T06:50:13.675Z,40.20
2018-10-16T06:52:40.631Z,40.00
2018-10-16T06:55:08.942Z,40.10
2018-10-16T06:57:35.795Z,40.10
2018-10-16T07:00:02.700Z,40.00
2018-10-16T07:02:29.695Z,40.00
2018-10-16T07:04:56.536Z,40.00
2018-10-16T07:07:23.874Z,40.10
2018-10-16T07:09:50.663Z,40.10
2018-10-16T07:12:17.536Z,40.10
2018-10-16T07:14:44.380Z,40.10
2018-10-16T07:17:12.281Z,40.00
2018-10-16T07:19:39.151Z,40.00
2018-10-16T07:22:06.006Z,40.00
2018-10-16T07:24:32.860Z,40.10
2018-10-16T07:26:59.729Z,40.10
2018-10-16T07:29:26.598Z,40.10
2018-10-16T07:31:53.465Z,40.00
2018-10-16T07:34:20.327Z,40.00
2018-10-16T07:36:47.167Z,40.10
2018-10-16T07:39:14.005Z,40.00
2018-10-16T07:41:40.868Z,40.00
2018-10-16T07:44:07.733Z,40.00
2018-10-16T07:46:34.572Z,40.00
2018-10-16T07:49:01.520Z,39.40
2018-10-16T07:51:28.345Z,40.10
2018-10-16T07:53:55.184Z,40.20
2018-10-16T07:56:22.019Z,40.30
2018-10-16T07:58:48.879Z,40.40
2018-10-16T08:01:15.716Z,40.30
2018-10-16T08:03:42.548Z,40.30
2018-10-16T08:06:09.377Z,40.40
2018-10-16T08:08:36.262Z,40.50
2018-10-16T08:11:03.081Z,40.50
2018-10-16T08:13:29.907Z,40.50
2018-10-16T08:15:56.748Z,40.50
2018-10-16T08:18:23.633Z,40.60
2018-10-16T08:20:50.451Z,40.60
2018-10-16T08:23:17.276Z,40.60
2018-10-16T08:25:44.115Z,40.70
2018-10-16T08:28:11.001Z,40.80
2018-10-16T08:30:38.591Z,40.80
2018-10-16T08:33:05.358Z,40.80
2018-10-16T08:35:32.195Z,40.80
2018-10-16T08:37:59.188Z,40.90
2018-10-16T08:40:26.027Z,40.90
2018-10-16T08:42:52.897Z,40.90
2018-10-16T08:45:19.788Z,41.00
2018-10-16T08:47:47.795Z,41.00
2018-10-16T08:50:14.629Z,41.00
2018-10-16T08:52:41.471Z,41.00
2018-10-16T08:55:08.373Z,41.00
2018-10-16T08:57:35.194Z,41.00
2018-10-16T09:00:02.023Z,41.10
2018-10-16T09:02:28.882Z,41.10
2018-10-16T09:04:55.694Z,41.10
2018-10-16T09:07:22.742Z,41.00
2018-10-16T09:09:49.571Z,41.00
2018-10-16T09:12:16.572Z,41.00
2018-10-16T09:14:43.508Z,41.00
2018-10-16T09:17:10.900Z,40.90
2018-10-16T09:19:37.736Z,41.00
2018-10-16T09:22:04.583Z,41.00
2018-10-16T09:24:32.250Z,41.00
2018-10-16T09:26:59.115Z,41.10
2018-10-16T09:29:25.965Z,41.10
2018-10-16T09:31:52.803Z,41.10
2018-10-16T09:34:19.617Z,41.10
2018-10-16T09:36:46.443Z,41.20
2018-10-16T09:39:13.285Z,41.20
2018-10-16T09:41:40.123Z,41.30
2018-10-16T09:44:07.236Z,41.30
2018-10-16T09:46:34.101Z,41.50
2018-10-16T09:49:01.111Z,41.40
2018-10-16T09:51:27.938Z,41.50
2018-10-16T09:53:54.834Z,41.50
2018-10-16T09:56:21.630Z,41.60
2018-10-16T09:58:48.492Z,41.60
2018-10-16T10:01:15.319Z,41.60
2018-10-16T10:03:43.025Z,41.60
2018-10-16T10:06:09.838Z,41.70
2018-10-16T10:08:36.666Z,41.70
2018-10-16T10:11:03.509Z,41.80
2018-10-16T10:13:30.392Z,41.80
2018-10-16T10:15:57.221Z,42.20
2018-10-16T10:18:24.272Z,41.80
2018-10-16T10:20:51.099Z,41.80
2018-10-16T10:23:17.994Z,41.90
2018-10-16T10:25:44.761Z,41.90
2018-10-16T10:28:11.622Z,41.90
2018-10-16T10:30:38.456Z,41.90
2018-10-16T10:33:05.296Z,42.00
2018-10-16T10:35:32.163Z,42.00
2018-10-16T10:37:59.001Z,42.10
2018-10-16T10:40:25.827Z,42.10
2018-10-16T10:42:52.657Z,42.40
2018-10-16T10:45:19.955Z,42.10
2018-10-16T10:47:46.978Z,42.10
2018-10-16T10:50:14.751Z,42.30
2018-10-16T10:52:41.501Z,42.30
2018-10-16T10:55:08.326Z,42.30
2018-10-16T10:57:35.192Z,42.40
2018-10-16T11:00:02.025Z,42.40
2018-10-16T11:02:28.842Z,42.40
2018-10-16T11:04:55.691Z,42.50
2018-10-16T11:07:22.538Z,42.50
2018-10-16T11:09:49.375Z,42.50
2018-10-16T11:12:16.227Z,42.60
2018-10-16T11:14:43.219Z,42.70
2018-10-16T11:17:10.114Z,42.70
2018-10-16T11:19:36.947Z,42.80
2018-10-16T11:22:03.785Z,42.80
2018-10-16T11:24:30.620Z,42.90
2018-10-16T11:26:57.510Z,42.70
2018-10-16T11:29:24.298Z,42.70
2018-10-16T11:31:51.178Z,42.70
2018-10-16T11:34:18.037Z,41.80
2018-10-16T11:36:44.872Z,41.90
2018-10-16T11:39:11.758Z,41.50
2018-10-16T11:41:38.532Z,41.80
2018-10-16T11:44:05.395Z,41.00
2018-10-16T11:46:32.224Z,41.10
2018-10-16T11:48:59.106Z,40.90
2018-10-16T11:51:25.955Z,40.90
2018-10-16T11:53:52.800Z,40.40
2018-10-16T11:56:19.641Z,40.90
2018-10-16T11:58:46.802Z,40.80
2018-10-16T12:01:13.640Z,40.50
2018-10-16T12:03:40.517Z,40.00
2018-10-16T12:06:07.443Z,39.80
2018-10-16T12:08:34.503Z,39.10
2018-10-16T12:11:01.375Z,38.80
2018-10-16T12:13:28.141Z,39.70
2018-10-16T12:15:55.036Z,38.50
2018-10-16T12:18:22.025Z,38.70
2018-10-16T12:20:49.521Z,38.60
2018-10-16T12:23:16.616Z,38.90
2018-10-16T12:25:43.559Z,39.10
2018-10-16T12:28:21.254Z,39.20
2018-10-16T12:33:35.945Z,39.40
2018-10-16T12:36:13.985Z,39.30
2018-10-16T12:38:49.932Z,39.40
2018-10-16T12:41:16.857Z,38.70
2018-10-16T12:43:43.788Z,38.40
2018-10-16T12:46:10.536Z,38.50
2018-10-16T12:48:37.430Z,38.70
2018-10-16T12:51:04.306Z,38.80
2018-10-16T12:53:31.141Z,38.20
2018-10-16T12:55:57.982Z,38.40
2018-10-16T12:58:24.983Z,38.50
2018-10-16T13:00:51.836Z,37.70
2018-10-16T13:03:18.685Z,37.20
2018-10-16T13:05:45.598Z,37.60
2018-10-16T13:08:13.668Z,37.90
2018-10-16T13:10:41.417Z,38.10
2018-10-16T13:13:08.299Z,37.10
2018-10-16T13:15:35.121Z,35.90
2018-10-16T13:18:02.209Z,36.60
2018-10-16T13:20:29.073Z,36.60
2018-10-16T13:22:56.006Z,36.90
2018-10-16T13:25:22.924Z,36.50
2018-10-16T13:27:50.163Z,36.60
2018-10-16T13:30:16.977Z,37.20
2018-10-16T13:32:43.824Z,36.80
2018-10-16T13:35:10.757Z,36.70
2018-10-16T13:37:37.736Z,35.60
2018-10-16T13:40:04.599Z,33.60
2018-10-16T13:42:31.643Z,35.10
2018-10-16T13:44:58.438Z,35.50
2018-10-16T13:47:26.153Z,36.30
2018-10-16T13:49:53.017Z,35.70
2018-10-16T13:52:19.809Z,35.50
2018-10-16T13:54:46.637Z,36.10
2018-10-16T13:57:13.481Z,36.00
2018-10-16T13:59:40.320Z,36.30
2018-10-16T14:02:07.181Z,36.20
2018-10-16T14:04:34.025Z,36.10
2018-10-16T14:07:00.826Z,35.80
2018-10-16T14:09:27.650Z,36.20
2018-10-16T14:11:54.489Z,34.80
2018-10-16T14:14:21.314Z,35.70
2018-10-16T14:16:48.255Z,34.80
2018-10-16T14:19:15.001Z,35.50
2018-10-16T14:21:41.816Z,34.80
2018-10-16T14:24:08.640Z,34.60
2018-10-16T14:26:35.554Z,34.60
2018-10-16T14:29:02.439Z,34.90
2018-10-16T14:31:29.289Z,35.30
2018-10-16T14:33:56.276Z,34.80
2018-10-16T14:36:22.951Z,34.70
2018-10-16T14:38:49.834Z,35.10
2018-10-16T14:41:16.662Z,34.70
2018-10-16T14:43:43.483Z,34.60
2018-10-16T14:46:10.356Z,34.10
2018-10-16T14:48:37.150Z,34.80
2018-10-16T14:51:04.009Z,34.30
2018-10-16T14:53:30.845Z,34.20
2018-10-16T14:55:57.694Z,34.50
2018-10-16T14:58:24.553Z,34.40
2018-10-16T15:00:51.389Z,35.20
2018-10-16T15:03:18.243Z,35.20
2018-10-16T15:05:45.073Z,35.10
2018-10-16T15:08:12.019Z,35.00
2018-10-16T15:10:38.766Z,35.00
2018-10-16T15:13:05.601Z,35.00
2018-10-16T15:15:32.666Z,35.10
2018-10-16T15:17:59.495Z,35.10
2018-10-16T15:20:26.331Z,34.90
2018-10-16T15:22:53.174Z,34.70
2018-10-16T15:25:20.014Z,34.50
2018-10-16T15:27:46.879Z,34.40
2018-10-16T15:30:13.723Z,34.50
2018-10-16T15:32:40.563Z,34.90
2018-10-16T15:35:07.400Z,34.60
2018-10-16T15:37:34.263Z,34.60
2018-10-16T15:40:01.192Z,34.40
2018-10-16T15:42:27.937Z,34.20
2018-10-16T15:44:54.777Z,34.50
2018-10-16T15:47:22.078Z,34.40
2018-10-16T15:49:49.041Z,34.30
2018-10-16T15:52:15.947Z,34.20
2018-10-16T15:54:42.712Z,34.40
2018-10-16T15:57:09.612Z,34.50
2018-10-16T15:59:36.441Z,34.50
2018-10-16T16:02:03.326Z,34.30
2018-10-16T16:04:30.154Z,34.40
2018-10-16T16:06:57.102Z,34.70
2018-10-16T16:09:23.916Z,34.90
2018-10-16T16:11:50.784Z,35.00
2018-10-16T16:14:17.800Z,35.20
2018-10-16T16:16:44.719Z,35.60
2018-10-16T16:19:11.601Z,35.90
2018-10-16T16:21:38.422Z,36.10
2018-10-16T16:24:05.309Z,36.20
2018-10-16T16:26:32.096Z,36.20
2018-10-16T16:28:59.143Z,36.50
2018-10-16T16:31:25.981Z,36.20
2018-10-16T16:33:52.846Z,36.50
2018-10-16T16:36:19.642Z,36.60
2018-10-16T16:38:46.558Z,36.90
2018-10-16T16:41:13.487Z,36.90
2018-10-16T16:43:40.252Z,36.90
2018-10-16T16:46:07.150Z,37.00
2018-10-16T16:48:33.954Z,37.20
2018-10-16T16:51:00.799Z,37.20
2018-10-16T16:53:27.591Z,37.40
2018-10-16T16:55:54.455Z,37.40
2018-10-16T16:58:21.315Z,37.50
2018-10-16T17:00:48.143Z,37.60
2018-10-16T17:03:14.967Z,37.80
2018-10-16T17:05:41.807Z,38.10
2018-10-16T17:08:08.743Z,38.00
2018-10-16T17:10:35.498Z,37.90
2018-10-16T17:13:03.201Z,37.90
2018-10-16T17:15:30.018Z,38.10
2018-10-16T17:17:56.873Z,38.00
2018-10-16T17:20:23.706Z,38.00
2018-10-16T17:22:50.541Z,38.00
2018-10-16T17:25:17.601Z,38.80
2018-10-16T17:27:44.435Z,38.30
2018-10-16T17:30:12.968Z,38.40
2018-10-16T17:32:39.800Z,38.30
2018-10-16T17:35:06.803Z,38.50
2018-10-16T17:37:33.669Z,38.60
2018-10-16T17:40:00.510Z,39.30
2018-10-16T17:42:27.355Z,39.30
2018-10-16T17:44:54.223Z,39.50
2018-10-16T17:47:22.459Z,39.70
2018-10-16T17:49:49.567Z,39.70
2018-10-16T17:52:16.414Z,40.00
2018-10-16T17:54:43.244Z,40.20
2018-10-16T17:57:10.302Z,40.40
2018-10-16T18:04:59.778Z,40.60
2018-10-16T18:07:26.693Z,40.80
2018-10-16T18:09:53.537Z,40.80
2018-10-16T18:12:20.370Z,40.60
2018-10-16T18:14:47.196Z,40.50
2018-10-16T18:17:14.062Z,40.70
2018-10-16T18:19:40.888Z,41.10
2018-10-16T18:22:07.747Z,41.00
2018-10-16T18:24:34.593Z,40.80
2018-10-16T18:27:01.444Z,40.70
2018-10-16T18:29:28.270Z,41.00
2018-10-16T18:31:55.113Z,40.50
2018-10-16T18:34:21.936Z,40.50
2018-10-16T18:36:48.769Z,40.60
2018-10-16T18:39:15.734Z,40.50
2018-10-16T18:41:42.458Z,40.50
2018-10-16T18:44:09.296Z,40.40
2018-10-16T18:46:36.131Z,40.50
2018-10-16T18:49:05.087Z,40.50
2018-10-16T18:51:31.909Z,40.50
2018-10-16T18:53:58.758Z,40.50
2018-10-16T18:56:25.632Z,40.50
2018-10-16T18:58:52.640Z,40.40
2018-10-16T19:01:19.474Z,40.40
2018-10-16T19:03:46.360Z,40.60
2018-10-16T19:06:13.164Z,40.90
2018-10-16T19:08:40.022Z,41.00
2018-10-16T19:11:06.865Z,40.70
2018-10-16T19:13:42.218Z,40.70
2018-10-16T19:19:02.202Z,41.20
2018-10-16T19:21:33.430Z,40.60
2018-10-16T19:24:13.518Z,40.60
2018-10-16T19:26:47.119Z,40.60
2018-10-16T19:29:26.713Z,40.60
2018-10-16T19:34:32.784Z,40.70
2018-10-16T19:36:59.639Z,40.70
2018-10-16T19:39:26.503Z,40.70
2018-10-16T19:41:53.371Z,40.70
2018-10-16T19:44:20.207Z,40.70
2018-10-16T19:46:47.003Z,40.60
2018-10-16T19:49:13.845Z,40.70
2018-10-16T19:51:40.695Z,40.70
2018-10-16T19:54:07.523Z,40.80
2018-10-16T19:56:34.354Z,40.90
2018-10-16T19:59:01.239Z,40.80
2018-10-16T20:01:28.076Z,41.10
2018-10-16T20:03:54.904Z,41.10
2018-10-16T20:06:21.731Z,41.10
2018-10-16T20:08:48.714Z,41.10
2018-10-16T20:11:15.452Z,41.30
2018-10-16T20:13:42.283Z,41.40
2018-10-16T20:16:09.128Z,41.70
2018-10-16T20:18:36.024Z,41.60
2018-10-16T20:21:02.870Z,42.20
2018-10-16T20:23:29.713Z,41.70
2018-10-16T20:25:56.541Z,41.60
2018-10-16T20:28:23.588Z,41.80
2018-10-16T20:30:50.669Z,41.50
2018-10-16T20:33:17.477Z,41.50
2018-10-16T20:35:44.538Z,41.50
2018-10-16T20:38:11.748Z,41.40
2018-10-16T20:40:38.559Z,41.60
2018-10-16T20:43:05.518Z,41.50
2018-10-16T20:45:32.490Z,41.50
2018-10-16T20:47:59.329Z,41.50
2018-10-16T20:50:26.163Z,41.50
2018-10-16T20:52:53.025Z,41.60
2018-10-16T20:55:20.777Z,41.80
2018-10-16T20:57:47.907Z,41.80
2018-10-16T21:00:14.738Z,41.60
2018-10-16T21:02:41.665Z,41.50
2018-10-16T21:05:08.674Z,41.50
2018-10-16T21:07:35.515Z,41.60
2018-10-16T21:10:02.361Z,41.50
2018-10-16T21:12:29.240Z,41.50
2018-10-16T21:14:57.355Z,41.70
2018-10-16T21:17:25.113Z,41.50
2018-10-16T21:19:51.918Z,41.50
2018-10-16T21:22:18.813Z,41.40
2018-10-16T21:24:45.655Z,41.60
2018-10-16T21:27:12.652Z,41.50
2018-10-16T21:29:39.728Z,41.50
2018-10-16T21:32:06.564Z,41.60
2018-10-16T21:34:33.385Z,41.50
2018-10-16T21:37:00.234Z,41.30
2018-10-16T21:39:28.324Z,41.20
2018-10-16T21:41:56.835Z,41.40
2018-10-16T21:44:23.661Z,41.40
2018-10-16T21:46:50.499Z,41.40
2018-10-16T21:49:17.395Z,41.30
2018-10-16T21:51:44.165Z,41.30
2018-10-16T21:54:11.019Z,41.30
2018-10-16T21:56:37.835Z,41.30
2018-10-16T21:59:04.815Z,41.30
2018-10-16T22:01:31.568Z,41.30
2018-10-16T22:03:58.385Z,41.30
2018-10-16T22:06:25.667Z,41.30
2018-10-16T22:08:52.732Z,41.30
2018-10-16T22:11:19.592Z,41.30
2018-10-16T22:13:46.507Z,41.30
2018-10-16T22:16:13.342Z,41.20
2018-10-16T22:18:40.403Z,41.20
2018-10-16T22:21:07.565Z,41.20
2018-10-16T22:23:34.482Z,41.30
2018-10-16T22:26:01.378Z,41.30
2018-10-16T22:28:28.324Z,41.20
2018-10-16T22:30:55.181Z,41.20
2018-10-16T22:33:21.988Z,41.10
2018-10-16T22:35:48.814Z,41.20
2018-10-16T22:38:16.719Z,41.20
2018-10-16T22:40:43.529Z,41.20
2018-10-16T22:43:10.445Z,41.20
2018-10-16T22:45:37.179Z,41.20
2018-10-16T22:48:04.107Z,41.20
2018-10-16T22:50:30.957Z,41.20
2018-10-16T22:52:57.837Z,41.80
2018-10-16T22:55:24.639Z,41.20
2018-10-16T22:57:51.623Z,41.20
2018-10-16T23:00:18.573Z,41.20
2018-10-16T23:02:45.386Z,41.20
2018-10-16T23:05:12.292Z,41.20
2018-10-16T23:07:39.244Z,41.20
2018-10-16T23:10:06.065Z,41.20
2018-10-16T23:12:33.051Z,41.20
2018-10-16T23:14:59.875Z,41.20
2018-10-16T23:17:26.777Z,41.20
2018-10-16T23:19:53.717Z,41.20
2018-10-16T23:22:20.561Z,41.20
2018-10-16T23:24:47.403Z,41.20
2018-10-16T23:27:14.362Z,41.20
2018-10-16T23:29:41.189Z,41.20
2018-10-16T23:32:08.906Z,41.20
2018-10-16T23:34:35.726Z,41.20
2018-10-16T23:37:02.579Z,41.20
2018-10-16T23:39:29.394Z,41.20
2018-10-16T23:41:56.220Z,41.20
2018-10-16T23:44:23.038Z,41.10
2018-10-16T23:46:49.884Z,41.10
2018-10-16T23:49:16.710Z,41.10
2018-10-16T23:51:43.537Z,41.20
2018-10-16T23:54:10.370Z,41.20
2018-10-16T23:56:37.197Z,41.10
2018-10-16T23:59:04.212Z,41.10
